Terminal Aerodrome Forecast
Issued by NWS

Home | Current Version | Previous Version | Text Only | Print | Product List | Glossary On
Versions: 1 2 3 4 5 6 7 8 9 10 11 12 13 14 15
028
FTAK31 PAJN 090812 AAB
TAFAGY
TAF AMD
PAGY 090812Z 0908/1006 04005KT 3SM -RASN BR BKN021 OVC045
     FM090900 21010G18KT 6SM -RA SCT025 OVC045
     FM091000 21015G28KT P6SM -RA FEW015 OVC050
     FM091400 21010G17KT P6SM -RA SCT025 OVC050
     FM091800 04008KT P6SM VCSH SCT030 BKN060 OVC100
     FM100300 04012KT P6SM BKN060 OVC100
      AMD LTD TO CLD VIS AND WIND=

USA.gov is the U.S. government's official web portal to all federal, state and local government web resources and services.